sensor_id;sensor_type;location;lat;lon;timestamp;temperature;humidity
60313;DHT22;46158;52.850;6.970;2024-01-27T00:01:11;15.70;70.70
60313;DHT22;46158;52.850;6.970;2024-01-27T00:03:36;15.60;70.70
60313;DHT22;46158;52.850;6.970;2024-01-27T00:06:02;15.60;70.70
60313;DHT22;46158;52.850;6.970;2024-01-27T00:08:28;15.60;70.70
60313;DHT22;46158;52.850;6.970;2024-01-27T00:10:54;15.60;70.70
60313;DHT22;46158;52.850;6.970;2024-01-27T00:13:19;15.50;70.70
60313;DHT22;46158;52.850;6.970;2024-01-27T00:15:45;15.50;70.70
60313;DHT22;46158;52.850;6.970;2024-01-27T00:18:10;15.50;70.70
60313;DHT22;46158;52.850;6.970;2024-01-27T00:20:36;15.50;70.70
60313;DHT22;46158;52.850;6.970;2024-01-27T00:23:03;15.40;70.70
60313;DHT22;46158;52.850;6.970;2024-01-27T00:25:29;15.40;70.70
60313;DHT22;46158;52.850;6.970;2024-01-27T00:27:54;15.40;70.70
60313;DHT22;46158;52.850;6.970;2024-01-27T00:30:20;15.40;70.70
60313;DHT22;46158;52.850;6.970;2024-01-27T00:32:46;15.40;70.80
60313;DHT22;46158;52.850;6.970;2024-01-27T00:35:12;15.30;70.70
60313;DHT22;46158;52.850;6.970;2024-01-27T00:37:40;15.30;70.70
60313;DHT22;46158;52.850;6.970;2024-01-27T00:40:10;15.30;70.80
60313;DHT22;46158;52.850;6.970;2024-01-27T00:42:36;15.30;70.70
60313;DHT22;46158;52.850;6.970;2024-01-27T00:45:04;15.20;70.70
60313;DHT22;46158;52.850;6.970;2024-01-27T00:47:30;15.20;70.70
60313;DHT22;46158;52.850;6.970;2024-01-27T00:49:56;15.20;71.50
60313;DHT22;46158;52.850;6.970;2024-01-27T00:52:22;15.20;70.70
60313;DHT22;46158;52.850;6.970;2024-01-27T00:54:48;15.20;70.70
60313;DHT22;46158;52.850;6.970;2024-01-27T00:57:13;15.20;70.70
60313;DHT22;46158;52.850;6.970;2024-01-27T00:59:39;15.10;70.70
60313;DHT22;46158;52.850;6.970;2024-01-27T01:02:06;15.10;70.70
60313;DHT22;46158;52.850;6.970;2024-01-27T01:04:32;15.10;70.60
60313;DHT22;46158;52.850;6.970;2024-01-27T01:06:58;15.10;70.70
60313;DHT22;46158;52.850;6.970;2024-01-27T01:09:24;15.10;70.70
60313;DHT22;46158;52.850;6.970;2024-01-27T01:11:51;15.10;70.70
60313;DHT22;46158;52.850;6.970;2024-01-27T01:14:17;15.00;70.70
60313;DHT22;46158;52.850;6.970;2024-01-27T01:16:45;15.00;70.60
60313;DHT22;46158;52.850;6.970;2024-01-27T01:19:11;15.00;70.60
60313;DHT22;46158;52.850;6.970;2024-01-27T01:21:36;15.00;70.70
60313;DHT22;46158;52.850;6.970;2024-01-27T01:24:02;15.00;70.70
60313;DHT22;46158;52.850;6.970;2024-01-27T01:26:28;14.90;70.50
60313;DHT22;46158;52.850;6.970;2024-01-27T01:28:53;14.90;70.60
60313;DHT22;46158;52.850;6.970;2024-01-27T01:31:19;14.90;70.60
60313;DHT22;46158;52.850;6.970;2024-01-27T01:33:44;14.90;70.60
60313;DHT22;46158;52.850;6.970;2024-01-27T01:36:10;14.90;70.60
60313;DHT22;46158;52.850;6.970;2024-01-27T01:38:36;14.90;70.60
60313;DHT22;46158;52.850;6.970;2024-01-27T01:41:01;14.80;70.50
60313;DHT22;46158;52.850;6.970;2024-01-27T01:43:27;14.80;70.50
60313;DHT22;46158;52.850;6.970;2024-01-27T01:45:53;14.80;70.50
60313;DHT22;46158;52.850;6.970;2024-01-27T01:48:20;14.80;70.50
60313;DHT22;46158;52.850;6.970;2024-01-27T01:50:46;14.80;70.50
60313;DHT22;46158;52.850;6.970;2024-01-27T01:53:12;14.70;70.50
60313;DHT22;46158;52.850;6.970;2024-01-27T01:55:40;14.70;70.50
60313;DHT22;46158;52.850;6.970;2024-01-27T01:58:06;14.70;70.50
60313;DHT22;46158;52.850;6.970;2024-01-27T02:00:32;14.70;70.50
60313;DHT22;46158;52.850;6.970;2024-01-27T02:02:58;14.70;70.50
60313;DHT22;46158;52.850;6.970;2024-01-27T02:05:24;14.70;70.50
60313;DHT22;46158;52.850;6.970;2024-01-27T02:07:50;14.70;70.50
60313;DHT22;46158;52.850;6.970;2024-01-27T02:10:17;14.70;70.50
60313;DHT22;46158;52.850;6.970;2024-01-27T02:12:43;14.60;70.40
60313;DHT22;46158;52.850;6.970;2024-01-27T02:15:10;14.60;70.40
60313;DHT22;46158;52.850;6.970;2024-01-27T02:17:37;14.60;70.40
60313;DHT22;46158;52.850;6.970;2024-01-27T02:20:03;14.60;70.40
60313;DHT22;46158;52.850;6.970;2024-01-27T02:22:29;14.60;70.40
60313;DHT22;46158;52.850;6.970;2024-01-27T02:24:54;14.50;70.30
60313;DHT22;46158;52.850;6.970;2024-01-27T02:27:20;14.50;70.40
60313;DHT22;46158;52.850;6.970;2024-01-27T02:29:46;14.50;70.30
60313;DHT22;46158;52.850;6.970;2024-01-27T02:32:11;14.50;70.30
60313;DHT22;46158;52.850;6.970;2024-01-27T02:34:37;14.50;70.40
60313;DHT22;46158;52.850;6.970;2024-01-27T02:37:03;14.50;70.40
60313;DHT22;46158;52.850;6.970;2024-01-27T02:39:28;14.50;70.30
60313;DHT22;46158;52.850;6.970;2024-01-27T02:41:54;14.40;70.30
60313;DHT22;46158;52.850;6.970;2024-01-27T02:44:19;14.50;70.30
60313;DHT22;46158;52.850;6.970;2024-01-27T02:46:45;14.40;70.30
60313;DHT22;46158;52.850;6.970;2024-01-27T02:49:10;14.40;70.30
60313;DHT22;46158;52.850;6.970;2024-01-27T02:51:36;14.40;70.30
60313;DHT22;46158;52.850;6.970;2024-01-27T02:54:02;14.40;70.30
60313;DHT22;46158;52.850;6.970;2024-01-27T02:56:27;14.40;70.30
60313;DHT22;46158;52.850;6.970;2024-01-27T02:58:53;14.30;70.20
60313;DHT22;46158;52.850;6.970;2024-01-27T03:01:18;14.30;70.20
60313;DHT22;46158;52.850;6.970;2024-01-27T03:03:44;14.30;70.30
60313;DHT22;46158;52.850;6.970;2024-01-27T03:06:10;14.30;70.20
60313;DHT22;46158;52.850;6.970;2024-01-27T03:08:35;14.30;70.20
60313;DHT22;46158;52.850;6.970;2024-01-27T03:11:01;14.30;70.20
60313;DHT22;46158;52.850;6.970;2024-01-27T03:13:26;14.30;70.30
60313;DHT22;46158;52.850;6.970;2024-01-27T03:15:52;14.20;70.20
60313;DHT22;46158;52.850;6.970;2024-01-27T03:18:18;14.20;70.20
60313;DHT22;46158;52.850;6.970;2024-01-27T03:20:43;14.20;70.20
60313;DHT22;46158;52.850;6.970;2024-01-27T03:23:10;14.20;70.20
60313;DHT22;46158;52.850;6.970;2024-01-27T03:25:35;14.20;70.20
60313;DHT22;46158;52.850;6.970;2024-01-27T03:28:01;14.20;70.20
60313;DHT22;46158;52.850;6.970;2024-01-27T03:30:27;14.20;70.20
60313;DHT22;46158;52.850;6.970;2024-01-27T03:32:52;14.10;70.10
60313;DHT22;46158;52.850;6.970;2024-01-27T03:35:18;14.10;70.10
60313;DHT22;46158;52.850;6.970;2024-01-27T03:37:44;14.10;70.10
60313;DHT22;46158;52.850;6.970;2024-01-27T03:40:11;14.10;70.20
60313;DHT22;46158;52.850;6.970;2024-01-27T03:42:36;14.10;70.20
60313;DHT22;46158;52.850;6.970;2024-01-27T03:45:02;14.00;70.10
60313;DHT22;46158;52.850;6.970;2024-01-27T03:47:28;14.00;70.10
60313;DHT22;46158;52.850;6.970;2024-01-27T03:49:54;14.00;70.10
60313;DHT22;46158;52.850;6.970;2024-01-27T03:52:20;14.00;70.10
60313;DHT22;46158;52.850;6.970;2024-01-27T03:54:45;14.00;70.10
60313;DHT22;46158;52.850;6.970;2024-01-27T03:57:11;14.00;70.10
60313;DHT22;46158;52.850;6.970;2024-01-27T03:59:37;14.00;70.10
60313;DHT22;46158;52.850;6.970;2024-01-27T04:02:06;13.90;70.10
60313;DHT22;46158;52.850;6.970;2024-01-27T04:04:31;13.90;70.10
60313;DHT22;46158;52.850;6.970;2024-01-27T04:06:57;13.90;70.10
60313;DHT22;46158;52.850;6.970;2024-01-27T04:09:23;13.90;70.10
60313;DHT22;46158;52.850;6.970;2024-01-27T04:11:49;13.90;70.10
60313;DHT22;46158;52.850;6.970;2024-01-27T04:14:15;13.90;70.20
60313;DHT22;46158;52.850;6.970;2024-01-27T04:16:40;13.90;70.10
60313;DHT22;46158;52.850;6.970;2024-01-27T04:19:06;13.80;70.10
60313;DHT22;46158;52.850;6.970;2024-01-27T04:21:32;13.80;70.10
60313;DHT22;46158;52.850;6.970;2024-01-27T04:23:57;13.80;70.10
60313;DHT22;46158;52.850;6.970;2024-01-27T04:26:23;13.80;70.10
60313;DHT22;46158;52.850;6.970;2024-01-27T04:28:48;13.80;70.10
60313;DHT22;46158;52.850;6.970;2024-01-27T04:31:16;13.80;70.20
60313;DHT22;46158;52.850;6.970;2024-01-27T04:33:42;13.80;70.20
60313;DHT22;46158;52.850;6.970;2024-01-27T04:36:08;13.70;70.10
60313;DHT22;46158;52.850;6.970;2024-01-27T04:38:35;13.70;70.10
60313;DHT22;46158;52.850;6.970;2024-01-27T04:41:01;13.70;70.10
60313;DHT22;46158;52.850;6.970;2024-01-27T04:43:26;13.70;70.10
60313;DHT22;46158;52.850;6.970;2024-01-27T04:45:52;13.70;70.10
60313;DHT22;46158;52.850;6.970;2024-01-27T04:48:17;13.70;70.10
60313;DHT22;46158;52.850;6.970;2024-01-27T04:50:43;13.60;70.10
60313;DHT22;46158;52.850;6.970;2024-01-27T04:53:09;13.60;70.10
60313;DHT22;46158;52.850;6.970;2024-01-27T04:55:34;13.60;70.10
60313;DHT22;46158;52.850;6.970;2024-01-27T04:58:00;13.60;70.10
60313;DHT22;46158;52.850;6.970;2024-01-27T05:00:26;13.60;70.10
60313;DHT22;46158;52.850;6.970;2024-01-27T05:02:53;13.60;70.10
60313;DHT22;46158;52.850;6.970;2024-01-27T05:05:18;13.60;70.10
60313;DHT22;46158;52.850;6.970;2024-01-27T05:07:44;13.50;70.00
60313;DHT22;46158;52.850;6.970;2024-01-27T05:10:14;13.50;70.00
60313;DHT22;46158;52.850;6.970;2024-01-27T05:12:40;13.50;70.00
60313;DHT22;46158;52.850;6.970;2024-01-27T05:15:06;13.50;70.00
60313;DHT22;46158;52.850;6.970;2024-01-27T05:17:32;13.50;70.00
60313;DHT22;46158;52.850;6.970;2024-01-27T05:19:58;13.50;70.00
60313;DHT22;46158;52.850;6.970;2024-01-27T05:22:24;13.50;70.00
60313;DHT22;46158;52.850;6.970;2024-01-27T05:24:49;13.40;69.90
60313;DHT22;46158;52.850;6.970;2024-01-27T05:27:15;13.40;69.90
60313;DHT22;46158;52.850;6.970;2024-01-27T05:29:40;13.40;70.00
60313;DHT22;46158;52.850;6.970;2024-01-27T05:32:06;13.40;69.90
60313;DHT22;46158;52.850;6.970;2024-01-27T05:34:32;13.40;70.00
60313;DHT22;46158;52.850;6.970;2024-01-27T05:36:58;13.40;70.00
60313;DHT22;46158;52.850;6.970;2024-01-27T05:39:23;13.40;70.00
60313;DHT22;46158;52.850;6.970;2024-01-27T05:41:49;13.40;70.00
60313;DHT22;46158;52.850;6.970;2024-01-27T05:44:15;13.30;69.90
60313;DHT22;46158;52.850;6.970;2024-01-27T05:46:40;13.30;69.90
60313;DHT22;46158;52.850;6.970;2024-01-27T05:49:06;13.40;70.00
60313;DHT22;46158;52.850;6.970;2024-01-27T05:51:31;13.30;69.90
60313;DHT22;46158;52.850;6.970;2024-01-27T05:53:57;13.30;69.90
60313;DHT22;46158;52.850;6.970;2024-01-27T05:56:23;13.30;69.80
60313;DHT22;46158;52.850;6.970;2024-01-27T05:58:49;13.30;69.90
60313;DHT22;46158;52.850;6.970;2024-01-27T06:01:14;13.30;69.90
60313;DHT22;46158;52.850;6.970;2024-01-27T06:03:43;13.30;69.80
60313;DHT22;46158;52.850;6.970;2024-01-27T06:06:09;13.30;69.80
60313;DHT22;46158;52.850;6.970;2024-01-27T06:08:36;13.20;69.80
60313;DHT22;46158;52.850;6.970;2024-01-27T06:11:02;13.30;69.80
60313;DHT22;46158;52.850;6.970;2024-01-27T06:13:31;13.30;69.80
60313;DHT22;46158;52.850;6.970;2024-01-27T06:15:58;13.30;69.70
60313;DHT22;46158;52.850;6.970;2024-01-27T06:18:24;13.30;69.70
60313;DHT22;46158;52.850;6.970;2024-01-27T06:20:50;13.30;69.70
60313;DHT22;46158;52.850;6.970;2024-01-27T06:23:15;13.30;69.60
60313;DHT22;46158;52.850;6.970;2024-01-27T06:25:41;13.30;69.50
60313;DHT22;46158;52.850;6.970;2024-01-27T06:28:06;13.30;69.40
60313;DHT22;46158;52.850;6.970;2024-01-27T06:30:32;13.30;69.40
60313;DHT22;46158;52.850;6.970;2024-01-27T06:32:58;13.30;69.30
60313;DHT22;46158;52.850;6.970;2024-01-27T06:35:23;13.30;69.30
60313;DHT22;46158;52.850;6.970;2024-01-27T06:37:49;13.40;69.40
60313;DHT22;46158;52.850;6.970;2024-01-27T06:40:16;13.40;69.40
60313;DHT22;46158;52.850;6.970;2024-01-27T06:42:41;13.40;69.30
60313;DHT22;46158;52.850;6.970;2024-01-27T06:45:07;13.40;69.30
60313;DHT22;46158;52.850;6.970;2024-01-27T06:47:33;13.40;69.30
60313;DHT22;46158;52.850;6.970;2024-01-27T06:49:58;13.40;69.40
60313;DHT22;46158;52.850;6.970;2024-01-27T06:52:24;13.40;69.40
60313;DHT22;46158;52.850;6.970;2024-01-27T06:54:49;13.40;69.40
60313;DHT22;46158;52.850;6.970;2024-01-27T06:57:23;13.40;69.40
60313;DHT22;46158;52.850;6.970;2024-01-27T06:59:50;13.40;69.60
60313;DHT22;46158;52.850;6.970;2024-01-27T07:02:22;13.40;69.20
60313;DHT22;46158;52.850;6.970;2024-01-27T07:04:47;13.40;69.20
60313;DHT22;46158;52.850;6.970;2024-01-27T07:07:13;13.40;69.20
60313;DHT22;46158;52.850;6.970;2024-01-27T07:09:39;13.40;69.20
60313;DHT22;46158;52.850;6.970;2024-01-27T07:12:05;13.40;69.20
60313;DHT22;46158;52.850;6.970;2024-01-27T07:14:30;13.50;69.10
60313;DHT22;46158;52.850;6.970;2024-01-27T07:16:56;13.50;69.10
60313;DHT22;46158;52.850;6.970;2024-01-27T07:19:22;13.50;69.10
60313;DHT22;46158;52.850;6.970;2024-01-27T07:21:47;13.50;69.10
60313;DHT22;46158;52.850;6.970;2024-01-27T07:24:13;13.50;69.00
60313;DHT22;46158;52.850;6.970;2024-01-27T07:26:38;13.50;69.10
60313;DHT22;46158;52.850;6.970;2024-01-27T07:29:04;13.50;69.20
60313;DHT22;46158;52.850;6.970;2024-01-27T07:31:29;13.50;69.50
60313;DHT22;46158;52.850;6.970;2024-01-27T07:33:56;13.60;69.70
60313;DHT22;46158;52.850;6.970;2024-01-27T07:36:22;13.60;69.80
60313;DHT22;46158;52.850;6.970;2024-01-27T07:38:47;13.70;70.00
60313;DHT22;46158;52.850;6.970;2024-01-27T07:41:13;13.70;70.20
60313;DHT22;46158;52.850;6.970;2024-01-27T07:43:38;13.70;70.30
60313;DHT22;46158;52.850;6.970;2024-01-27T07:46:04;13.80;70.50
60313;DHT22;46158;52.850;6.970;2024-01-27T07:48:30;13.90;70.70
60313;DHT22;46158;52.850;6.970;2024-01-27T07:50:55;13.90;70.70
60313;DHT22;46158;52.850;6.970;2024-01-27T07:53:22;14.00;70.80
60313;DHT22;46158;52.850;6.970;2024-01-27T07:55:47;14.00;70.80
60313;DHT22;46158;52.850;6.970;2024-01-27T07:58:13;14.10;70.90
60313;DHT22;46158;52.850;6.970;2024-01-27T08:00:39;14.10;71.00
60313;DHT22;46158;52.850;6.970;2024-01-27T08:03:04;14.10;71.10
60313;DHT22;46158;52.850;6.970;2024-01-27T08:05:30;14.20;71.30
60313;DHT22;46158;52.850;6.970;2024-01-27T08:07:56;14.20;71.30
60313;DHT22;46158;52.850;6.970;2024-01-27T08:10:22;14.30;71.30
60313;DHT22;46158;52.850;6.970;2024-01-27T08:12:48;14.30;71.30
60313;DHT22;46158;52.850;6.970;2024-01-27T08:15:13;14.40;71.30
60313;DHT22;46158;52.850;6.970;2024-01-27T08:17:39;14.40;71.30
60313;DHT22;46158;52.850;6.970;2024-01-27T08:20:05;14.50;71.40
60313;DHT22;46158;52.850;6.970;2024-01-27T08:22:31;14.50;71.30
60313;DHT22;46158;52.850;6.970;2024-01-27T08:24:56;14.50;71.30
60313;DHT22;46158;52.850;6.970;2024-01-27T08:27:22;14.60;71.30
60313;DHT22;46158;52.850;6.970;2024-01-27T08:29:48;14.60;71.30
60313;DHT22;46158;52.850;6.970;2024-01-27T08:32:13;14.70;71.30
60313;DHT22;46158;52.850;6.970;2024-01-27T08:34:39;14.80;71.20
60313;DHT22;46158;52.850;6.970;2024-01-27T08:37:18;14.90;71.10
60313;DHT22;46158;52.850;6.970;2024-01-27T08:39:44;14.90;71.20
60313;DHT22;46158;52.850;6.970;2024-01-27T08:42:11;14.90;71.10
60313;DHT22;46158;52.850;6.970;2024-01-27T08:44:40;15.00;71.20
60313;DHT22;46158;52.850;6.970;2024-01-27T08:47:06;15.00;71.20
60313;DHT22;46158;52.850;6.970;2024-01-27T08:49:31;15.00;71.20
60313;DHT22;46158;52.850;6.970;2024-01-27T08:51:57;15.00;71.30
60313;DHT22;46158;52.850;6.970;2024-01-27T08:54:23;15.00;71.30
60313;DHT22;46158;52.850;6.970;2024-01-27T08:56:49;15.00;71.40
60313;DHT22;46158;52.850;6.970;2024-01-27T08:59:15;15.10;71.50
60313;DHT22;46158;52.850;6.970;2024-01-27T09:01:41;15.10;71.50
60313;DHT22;46158;52.850;6.970;2024-01-27T09:04:07;15.10;71.50
60313;DHT22;46158;52.850;6.970;2024-01-27T09:06:33;15.20;71.60
60313;DHT22;46158;52.850;6.970;2024-01-27T09:08:59;15.20;71.60
60313;DHT22;46158;52.850;6.970;2024-01-27T09:11:24;15.20;71.60
60313;DHT22;46158;52.850;6.970;2024-01-27T09:13:53;15.20;71.60
60313;DHT22;46158;52.850;6.970;2024-01-27T09:16:18;15.30;71.70
60313;DHT22;46158;52.850;6.970;2024-01-27T09:18:45;15.30;71.70
60313;DHT22;46158;52.850;6.970;2024-01-27T09:21:11;15.40;71.70
60313;DHT22;46158;52.850;6.970;2024-01-27T09:23:37;15.40;71.70
60313;DHT22;46158;52.850;6.970;2024-01-27T09:26:03;15.40;71.70
60313;DHT22;46158;52.850;6.970;2024-01-27T09:28:29;15.40;71.70
60313;DHT22;46158;52.850;6.970;2024-01-27T09:30:55;15.40;71.80
60313;DHT22;46158;52.850;6.970;2024-01-27T09:33:20;15.50;71.70
60313;DHT22;46158;52.850;6.970;2024-01-27T09:35:49;15.50;71.70
60313;DHT22;46158;52.850;6.970;2024-01-27T09:38:15;15.50;71.70
60313;DHT22;46158;52.850;6.970;2024-01-27T09:40:41;15.50;71.70
60313;DHT22;46158;52.850;6.970;2024-01-27T09:43:07;15.50;71.70
60313;DHT22;46158;52.850;6.970;2024-01-27T09:45:35;15.60;71.70
60313;DHT22;46158;52.850;6.970;2024-01-27T09:48:03;15.60;71.70
60313;DHT22;46158;52.850;6.970;2024-01-27T09:50:30;15.60;71.60
60313;DHT22;46158;52.850;6.970;2024-01-27T09:52:56;15.70;71.70
60313;DHT22;46158;52.850;6.970;2024-01-27T09:55:21;15.70;72.30
60313;DHT22;46158;52.850;6.970;2024-01-27T09:57:48;15.80;71.50
60313;DHT22;46158;52.850;6.970;2024-01-27T10:00:14;15.90;71.40
60313;DHT22;46158;52.850;6.970;2024-01-27T10:02:43;16.00;71.20
60313;DHT22;46158;52.850;6.970;2024-01-27T10:05:10;16.10;71.00
60313;DHT22;46158;52.850;6.970;2024-01-27T10:07:37;16.20;70.80
60313;DHT22;46158;52.850;6.970;2024-01-27T10:10:03;16.20;70.60
60313;DHT22;46158;52.850;6.970;2024-01-27T10:12:29;16.30;70.50
60313;DHT22;46158;52.850;6.970;2024-01-27T10:14:55;16.30;70.50
60313;DHT22;46158;52.850;6.970;2024-01-27T10:17:21;16.20;70.40
60313;DHT22;46158;52.850;6.970;2024-01-27T10:20:02;16.20;70.40
60313;DHT22;46158;52.850;6.970;2024-01-27T10:22:40;16.20;70.40
60313;DHT22;46158;52.850;6.970;2024-01-27T10:25:06;16.20;70.40
60313;DHT22;46158;52.850;6.970;2024-01-27T10:27:32;16.20;70.40
60313;DHT22;46158;52.850;6.970;2024-01-27T10:29:58;16.20;70.20
60313;DHT22;46158;52.850;6.970;2024-01-27T10:32:24;16.20;70.00
60313;DHT22;46158;52.850;6.970;2024-01-27T10:35:11;16.30;69.90
60313;DHT22;46158;52.850;6.970;2024-01-27T10:37:37;16.30;69.70
60313;DHT22;46158;52.850;6.970;2024-01-27T10:40:06;16.30;69.90
60313;DHT22;46158;52.850;6.970;2024-01-27T10:42:37;16.20;69.90
60313;DHT22;46158;52.850;6.970;2024-01-27T10:45:04;16.20;70.00
60313;DHT22;46158;52.850;6.970;2024-01-27T10:47:31;16.20;70.10
60313;DHT22;46158;52.850;6.970;2024-01-27T10:49:58;16.20;70.10
60313;DHT22;46158;52.850;6.970;2024-01-27T10:52:37;16.20;70.10
60313;DHT22;46158;52.850;6.970;2024-01-27T10:55:04;16.20;70.10
60313;DHT22;46158;52.850;6.970;2024-01-27T10:57:36;16.10;70.10
60313;DHT22;46158;52.850;6.970;2024-01-27T11:00:03;16.10;70.20
60313;DHT22;46158;52.850;6.970;2024-01-27T11:02:33;16.10;70.20
60313;DHT22;46158;52.850;6.970;2024-01-27T11:05:02;16.10;70.30
60313;DHT22;46158;52.850;6.970;2024-01-27T11:07:31;16.00;70.30
60313;DHT22;46158;52.850;6.970;2024-01-27T11:09:57;16.00;70.20
60313;DHT22;46158;52.850;6.970;2024-01-27T11:12:23;16.00;70.30
60313;DHT22;46158;52.850;6.970;2024-01-27T11:14:51;16.00;70.30
60313;DHT22;46158;52.850;6.970;2024-01-27T11:17:19;16.00;70.30
60313;DHT22;46158;52.850;6.970;2024-01-27T11:19:45;16.00;70.40
60313;DHT22;46158;52.850;6.970;2024-01-27T11:22:29;16.00;70.30
60313;DHT22;46158;52.850;6.970;2024-01-27T11:25:17;16.00;70.30
60313;DHT22;46158;52.850;6.970;2024-01-27T11:27:44;16.00;70.30
60313;DHT22;46158;52.850;6.970;2024-01-27T11:30:30;16.00;70.30
60313;DHT22;46158;52.850;6.970;2024-01-27T11:33:01;16.00;70.30
60313;DHT22;46158;52.850;6.970;2024-01-27T11:35:27;16.00;70.40
60313;DHT22;46158;52.850;6.970;2024-01-27T11:37:54;16.00;70.30
60313;DHT22;46158;52.850;6.970;2024-01-27T11:40:20;16.00;70.30
60313;DHT22;46158;52.850;6.970;2024-01-27T11:43:01;16.00;70.30
60313;DHT22;46158;52.850;6.970;2024-01-27T11:45:27;16.00;70.30
60313;DHT22;46158;52.850;6.970;2024-01-27T11:47:56;16.00;70.30
60313;DHT22;46158;52.850;6.970;2024-01-27T11:50:22;16.00;70.30
60313;DHT22;46158;52.850;6.970;2024-01-27T11:52:48;16.00;70.30
60313;DHT22;46158;52.850;6.970;2024-01-27T11:55:14;16.00;70.30
60313;DHT22;46158;52.850;6.970;2024-01-27T11:57:44;16.00;70.30
60313;DHT22;46158;52.850;6.970;2024-01-27T12:00:10;15.90;70.20
60313;DHT22;46158;52.850;6.970;2024-01-27T12:02:37;15.90;70.30
60313;DHT22;46158;52.850;6.970;2024-01-27T12:05:04;16.00;70.30
60313;DHT22;46158;52.850;6.970;2024-01-27T12:07:30;15.90;70.20
60313;DHT22;46158;52.850;6.970;2024-01-27T12:09:56;15.90;70.20
60313;DHT22;46158;52.850;6.970;2024-01-27T12:12:22;15.90;70.10
60313;DHT22;46158;52.850;6.970;2024-01-27T12:14:49;15.90;70.20
60313;DHT22;46158;52.850;6.970;2024-01-27T12:17:15;15.90;70.20
60313;DHT22;46158;52.850;6.970;2024-01-27T12:19:49;15.90;70.20
60313;DHT22;46158;52.850;6.970;2024-01-27T12:24:47;15.90;70.10
60313;DHT22;46158;52.850;6.970;2024-01-27T12:27:13;15.90;70.10
60313;DHT22;46158;52.850;6.970;2024-01-27T12:29:41;15.90;70.20
60313;DHT22;46158;52.850;6.970;2024-01-27T12:32:07;15.90;70.10
60313;DHT22;46158;52.850;6.970;2024-01-27T12:34:33;15.90;70.10
60313;DHT22;46158;52.850;6.970;2024-01-27T12:36:58;15.90;70.10
60313;DHT22;46158;52.850;6.970;2024-01-27T12:39:26;15.90;70.10
60313;DHT22;46158;52.850;6.970;2024-01-27T12:41:51;15.90;70.20
60313;DHT22;46158;52.850;6.970;2024-01-27T12:44:17;15.90;70.20
60313;DHT22;46158;52.850;6.970;2024-01-27T12:46:42;15.90;70.20
60313;DHT22;46158;52.850;6.970;2024-01-27T12:49:08;15.90;70.20
60313;DHT22;46158;52.850;6.970;2024-01-27T12:51:34;15.90;70.20
60313;DHT22;46158;52.850;6.970;2024-01-27T12:53:59;15.90;70.20
60313;DHT22;46158;52.850;6.970;2024-01-27T12:56:25;15.90;70.30
60313;DHT22;46158;52.850;6.970;2024-01-27T12:58:51;15.90;70.30
60313;DHT22;46158;52.850;6.970;2024-01-27T13:01:17;16.00;70.40
60313;DHT22;46158;52.850;6.970;2024-01-27T13:03:43;16.00;70.30
60313;DHT22;46158;52.850;6.970;2024-01-27T13:06:08;16.00;70.40
60313;DHT22;46158;52.850;6.970;2024-01-27T13:08:34;16.00;70.40
60313;DHT22;46158;52.850;6.970;2024-01-27T13:11:00;16.00;70.40
60313;DHT22;46158;52.850;6.970;2024-01-27T13:13:25;16.00;70.40
60313;DHT22;46158;52.850;6.970;2024-01-27T13:15:51;16.00;70.40
60313;DHT22;46158;52.850;6.970;2024-01-27T13:18:17;16.00;70.50
60313;DHT22;46158;52.850;6.970;2024-01-27T13:20:42;16.00;70.60
60313;DHT22;46158;52.850;6.970;2024-01-27T13:23:08;16.00;70.60
60313;DHT22;46158;52.850;6.970;2024-01-27T13:25:34;16.00;70.30
60313;DHT22;46158;52.850;6.970;2024-01-27T13:28:00;16.00;70.00
60313;DHT22;46158;52.850;6.970;2024-01-27T13:30:25;16.00;70.10
60313;DHT22;46158;52.850;6.970;2024-01-27T13:32:52;16.10;70.10
60313;DHT22;46158;52.850;6.970;2024-01-27T13:35:18;16.00;70.10
60313;DHT22;46158;52.850;6.970;2024-01-27T13:37:43;16.00;70.20
60313;DHT22;46158;52.850;6.970;2024-01-27T13:40:09;16.00;70.30
60313;DHT22;46158;52.850;6.970;2024-01-27T13:42:35;16.00;70.30
60313;DHT22;46158;52.850;6.970;2024-01-27T13:45:01;16.00;70.30
60313;DHT22;46158;52.850;6.970;2024-01-27T13:47:27;16.00;70.30
60313;DHT22;46158;52.850;6.970;2024-01-27T13:49:53;16.00;70.30
60313;DHT22;46158;52.850;6.970;2024-01-27T13:52:19;16.00;71.00
60313;DHT22;46158;52.850;6.970;2024-01-27T13:54:45;16.00;70.40
60313;DHT22;46158;52.850;6.970;2024-01-27T13:57:11;16.00;70.50
60313;DHT22;46158;52.850;6.970;2024-01-27T13:59:37;16.00;70.50
60313;DHT22;46158;52.850;6.970;2024-01-27T14:02:03;16.00;70.60
60313;DHT22;46158;52.850;6.970;2024-01-27T14:04:28;16.00;70.60
60313;DHT22;46158;52.850;6.970;2024-01-27T14:06:54;16.00;70.70
60313;DHT22;46158;52.850;6.970;2024-01-27T14:09:20;16.00;70.70
60313;DHT22;46158;52.850;6.970;2024-01-27T14:11:46;16.00;70.80
60313;DHT22;46158;52.850;6.970;2024-01-27T14:14:12;16.00;70.70
60313;DHT22;46158;52.850;6.970;2024-01-27T14:16:38;16.00;70.80
60313;DHT22;46158;52.850;6.970;2024-01-27T14:19:03;16.00;70.70
60313;DHT22;46158;52.850;6.970;2024-01-27T14:21:29;16.00;70.70
60313;DHT22;46158;52.850;6.970;2024-01-27T14:23:55;16.00;70.70
60313;DHT22;46158;52.850;6.970;2024-01-27T14:26:28;16.00;70.80
60313;DHT22;46158;52.850;6.970;2024-01-27T14:28:54;16.00;70.70
60313;DHT22;46158;52.850;6.970;2024-01-27T14:31:21;15.90;70.70
60313;DHT22;46158;52.850;6.970;2024-01-27T14:33:47;15.90;70.80
60313;DHT22;46158;52.850;6.970;2024-01-27T14:36:13;16.00;70.90
60313;DHT22;46158;52.850;6.970;2024-01-27T14:38:39;15.90;70.80
60313;DHT22;46158;52.850;6.970;2024-01-27T14:41:06;16.00;70.80
60313;DHT22;46158;52.850;6.970;2024-01-27T14:43:32;15.90;70.70
60313;DHT22;46158;52.850;6.970;2024-01-27T14:45:58;15.90;70.60
60313;DHT22;46158;52.850;6.970;2024-01-27T14:48:24;15.90;71.30
60313;DHT22;46158;52.850;6.970;2024-01-27T14:50:51;15.90;70.70
60313;DHT22;46158;52.850;6.970;2024-01-27T14:53:25;15.90;70.50
60313;DHT22;46158;52.850;6.970;2024-01-27T14:55:50;15.90;70.40
60313;DHT22;46158;52.850;6.970;2024-01-27T14:58:16;15.90;70.40
60313;DHT22;46158;52.850;6.970;2024-01-27T15:00:42;15.90;70.50
60313;DHT22;46158;52.850;6.970;2024-01-27T15:03:08;15.90;70.50
60313;DHT22;46158;52.850;6.970;2024-01-27T15:05:35;15.90;70.50
60313;DHT22;46158;52.850;6.970;2024-01-27T15:08:06;15.90;70.50
60313;DHT22;46158;52.850;6.970;2024-01-27T15:10:32;15.90;70.60
60313;DHT22;46158;52.850;6.970;2024-01-27T15:12:57;15.90;70.60
60313;DHT22;46158;52.850;6.970;2024-01-27T15:15:23;15.90;70.50
60313;DHT22;46158;52.850;6.970;2024-01-27T15:17:49;15.90;70.60
60313;DHT22;46158;52.850;6.970;2024-01-27T15:20:15;15.90;70.60
60313;DHT22;46158;52.850;6.970;2024-01-27T15:22:41;15.90;70.80
60313;DHT22;46158;52.850;6.970;2024-01-27T15:25:07;15.90;70.60
60313;DHT22;46158;52.850;6.970;2024-01-27T15:27:33;15.90;70.50